createdAt,value
2018-07-25T00:02:20.203Z,67.00
2018-07-25T00:04:49.445Z,67.20
2018-07-25T00:07:18.650Z,67.30
2018-07-25T00:09:47.868Z,67.60
2018-07-25T00:12:17.071Z,67.70
2018-07-25T00:14:46.425Z,67.60
2018-07-25T00:17:15.619Z,67.70
2018-07-25T00:19:44.835Z,67.70
2018-07-25T00:22:14.069Z,67.90
2018-07-25T00:24:43.291Z,67.90
2018-07-25T00:27:12.493Z,68.20
2018-07-25T00:29:41.745Z,68.60
2018-07-25T00:32:11.011Z,68.80
2018-07-25T00:34:40.366Z,69.00
2018-07-25T00:37:09.692Z,69.20
2018-07-25T00:39:38.910Z,69.40
2018-07-25T00:42:08.116Z,69.60
2018-07-25T00:44:37.441Z,69.30
2018-07-25T00:47:06.817Z,69.50
2018-07-25T00:49:36.034Z,69.70
2018-07-25T00:52:05.258Z,70.30
2018-07-25T00:54:34.599Z,70.50
2018-07-25T00:57:03.797Z,71.10
2018-07-25T00:59:33.019Z,70.90
2018-07-25T01:02:02.304Z,71.30
2018-07-25T01:04:31.552Z,71.80
2018-07-25T01:07:00.751Z,72.70
2018-07-25T01:09:29.950Z,73.20
2018-07-25T01:11:59.185Z,73.80
2018-07-25T01:14:28.389Z,74.40
2018-07-25T01:16:57.677Z,75.60
2018-07-25T01:19:26.889Z,74.30
2018-07-25T01:21:56.112Z,74.90
2018-07-25T01:24:25.282Z,74.70
2018-07-25T01:26:54.513Z,75.00
2018-07-25T01:29:23.977Z,74.80
2018-07-25T01:31:53.207Z,74.90
2018-07-25T01:34:22.409Z,74.60
2018-07-25T01:36:51.677Z,74.30
2018-07-25T01:39:20.854Z,73.80
2018-07-25T01:41:50.098Z,73.80
2018-07-25T01:44:19.375Z,74.50
2018-07-25T01:46:48.597Z,75.00
2018-07-25T01:49:17.801Z,75.40
2018-07-25T01:51:47.132Z,75.80
2018-07-25T01:54:16.349Z,75.80
2018-07-25T01:56:45.574Z,75.80
2018-07-25T01:59:14.770Z,75.30
2018-07-25T02:01:44.091Z,75.30
2018-07-25T02:04:13.256Z,75.30
2018-07-25T02:06:42.493Z,75.40
2018-07-25T02:09:12.130Z,75.30
2018-07-25T02:11:41.363Z,75.10
2018-07-25T02:14:10.569Z,75.30
2018-07-25T02:16:39.798Z,75.20
2018-07-25T02:19:08.992Z,75.60
2018-07-25T02:21:38.221Z,75.90
2018-07-25T02:24:07.449Z,76.00
2018-07-25T02:26:36.928Z,76.00
2018-07-25T02:29:06.141Z,76.10
2018-07-25T02:31:35.389Z,76.10
2018-07-25T02:34:09.905Z,76.40
2018-07-25T02:36:39.094Z,77.20
2018-07-25T02:39:11.483Z,77.20
2018-07-25T02:41:40.763Z,77.10
2018-07-25T02:44:09.937Z,77.30
2018-07-25T02:46:39.124Z,77.30
2018-07-25T02:49:08.410Z,77.40
2018-07-25T02:51:37.622Z,77.70
2018-07-25T02:54:07.490Z,77.90
2018-07-25T02:56:37.301Z,78.00
2018-07-25T02:59:06.528Z,78.10
2018-07-25T03:01:35.725Z,78.10
2018-07-25T03:04:04.953Z,77.90
2018-07-25T03:06:34.134Z,78.00
2018-07-25T03:09:03.420Z,78.20
2018-07-25T03:11:32.590Z,78.20
2018-07-25T03:14:01.812Z,78.40
2018-07-25T03:16:31.030Z,78.40
2018-07-25T03:19:00.237Z,78.60
2018-07-25T03:21:29.429Z,78.70
2018-07-25T03:23:58.685Z,78.70
2018-07-25T03:26:27.881Z,78.70
2018-07-25T03:28:57.150Z,78.80
2018-07-25T03:31:26.467Z,78.90
2018-07-25T03:33:55.675Z,79.30
2018-07-25T03:36:24.896Z,79.30
2018-07-25T03:38:54.128Z,79.30
2018-07-25T03:41:23.402Z,79.10
2018-07-25T03:43:52.620Z,79.00
2018-07-25T03:46:21.833Z,78.80
2018-07-25T03:48:51.061Z,79.00
2018-07-25T03:51:20.241Z,79.40
2018-07-25T03:53:49.443Z,79.10
2018-07-25T03:56:18.628Z,78.90
2018-07-25T03:58:47.847Z,78.90
2018-07-25T04:01:17.051Z,78.90
2018-07-25T04:03:46.281Z,79.00
2018-07-25T04:06:15.492Z,78.90
2018-07-25T04:08:44.770Z,79.00
2018-07-25T04:11:13.990Z,79.40
2018-07-25T04:13:43.237Z,79.70
2018-07-25T04:16:12.440Z,79.80
2018-07-25T04:18:41.643Z,79.60
2018-07-25T04:21:10.874Z,79.50
2018-07-25T04:23:40.138Z,79.40
2018-07-25T04:26:09.387Z,79.10
2018-07-25T04:28:38.594Z,79.10
2018-07-25T04:31:07.816Z,79.10
2018-07-25T04:33:37.081Z,79.10
2018-07-25T04:36:06.342Z,79.10
2018-07-25T04:38:35.577Z,79.00
2018-07-25T04:41:04.825Z,79.00
2018-07-25T04:43:34.077Z,79.40
2018-07-25T04:46:03.336Z,79.40
2018-07-25T04:48:32.632Z,79.30
2018-07-25T04:51:01.921Z,79.30
2018-07-25T04:53:31.123Z,79.50
2018-07-25T04:56:00.385Z,78.90
2018-07-25T04:58:29.995Z,78.70
2018-07-25T05:00:59.901Z,78.70
2018-07-25T05:03:29.130Z,78.40
2018-07-25T05:05:58.396Z,78.10
2018-07-25T05:08:27.663Z,78.40
2018-07-25T05:10:56.884Z,77.60
2018-07-25T05:13:26.291Z,77.90
2018-07-25T05:15:55.536Z,77.40
2018-07-25T05:18:24.737Z,77.40
2018-07-25T05:20:53.964Z,77.40
2018-07-25T05:23:23.248Z,77.30
2018-07-25T05:25:52.425Z,77.20
2018-07-25T05:28:21.609Z,77.20
2018-07-25T05:30:50.835Z,77.40
2018-07-25T05:33:20.076Z,77.20
2018-07-25T05:35:49.288Z,76.80
2018-07-25T05:38:18.510Z,76.50
2018-07-25T05:40:47.757Z,76.40
2018-07-25T05:43:16.976Z,75.90
2018-07-25T05:45:46.319Z,75.70
2018-07-25T05:48:15.521Z,75.40
2018-07-25T05:50:45.051Z,75.30
2018-07-25T05:53:14.301Z,74.50
2018-07-25T05:55:43.832Z,74.00
2018-07-25T05:58:13.059Z,73.60
2018-07-25T06:00:42.312Z,73.20
2018-07-25T06:03:11.568Z,72.70
2018-07-25T06:05:40.816Z,72.30
2018-07-25T06:08:10.073Z,71.80
2018-07-25T06:10:39.338Z,71.70
2018-07-25T06:13:08.622Z,71.60
2018-07-25T06:15:37.935Z,71.20
2018-07-25T06:18:07.294Z,70.80
2018-07-25T06:20:36.558Z,70.20
2018-07-25T06:23:05.825Z,70.20
2018-07-25T06:25:35.113Z,70.30
2018-07-25T06:28:04.351Z,69.10
2018-07-25T06:30:33.650Z,68.70
2018-07-25T06:33:02.916Z,68.30
2018-07-25T06:35:32.167Z,68.30
2018-07-25T06:38:01.467Z,67.60
2018-07-25T06:40:31.406Z,66.60
2018-07-25T06:43:01.373Z,66.40
2018-07-25T06:45:30.605Z,65.60
2018-07-25T06:47:59.875Z,65.10
2018-07-25T06:50:29.119Z,64.80
2018-07-25T06:52:58.341Z,64.30
2018-07-25T06:55:27.642Z,63.80
2018-07-25T06:57:56.900Z,62.90
2018-07-25T07:00:26.133Z,62.40
2018-07-25T07:02:55.368Z,61.60
2018-07-25T07:05:24.585Z,61.50
2018-07-25T07:07:54.621Z,61.20
2018-07-25T07:10:24.316Z,60.50
2018-07-25T07:12:53.564Z,59.70
2018-07-25T07:15:22.814Z,58.80
2018-07-25T07:17:52.095Z,58.90
2018-07-25T07:20:21.311Z,57.70
2018-07-25T07:22:50.660Z,57.20
2018-07-25T07:25:19.843Z,57.00
2018-07-25T07:27:49.052Z,56.60
2018-07-25T07:32:47.260Z,56.80
2018-07-25T07:35:16.497Z,56.50
2018-07-25T07:37:45.847Z,54.70
2018-07-25T07:40:15.040Z,53.40
2018-07-25T07:42:44.241Z,52.80
2018-07-25T07:45:13.445Z,51.80
2018-07-25T07:47:42.772Z,52.20
2018-07-25T07:50:12.037Z,50.90
2018-07-25T07:52:41.236Z,51.50
2018-07-25T07:55:10.443Z,51.80
2018-07-25T07:57:39.669Z,50.60
2018-07-25T08:00:08.935Z,49.20
2018-07-25T08:02:38.139Z,49.50
2018-07-25T08:05:07.495Z,49.10
2018-07-25T08:07:36.606Z,48.90
2018-07-25T08:10:05.993Z,48.90
2018-07-25T08:12:35.233Z,47.10
2018-07-25T08:15:04.976Z,46.60
2018-07-25T08:17:34.191Z,46.80
2018-07-25T08:20:03.586Z,46.00
2018-07-25T08:22:32.786Z,46.20
2018-07-25T08:25:02.038Z,45.70
2018-07-25T08:27:31.265Z,45.80
2018-07-25T08:30:00.560Z,45.50
2018-07-25T08:32:29.875Z,44.50
2018-07-25T08:34:59.101Z,44.50
2018-07-25T08:37:28.357Z,43.90
2018-07-25T08:39:57.613Z,44.50
2018-07-25T08:42:26.859Z,43.50
2018-07-25T08:44:56.092Z,44.20
2018-07-25T08:47:25.767Z,43.30
2018-07-25T08:49:55.001Z,43.40
2018-07-25T08:52:24.279Z,42.20
2018-07-25T08:54:53.510Z,42.90
2018-07-25T08:57:22.732Z,42.40
2018-07-25T08:59:51.990Z,41.70
2018-07-25T09:02:21.225Z,41.90
2018-07-25T09:04:50.505Z,41.00
2018-07-25T09:07:19.692Z,41.40
2018-07-25T09:09:48.921Z,41.30
2018-07-25T09:12:18.122Z,41.30
2018-07-25T09:14:47.382Z,40.90
2018-07-25T09:17:16.586Z,39.50
2018-07-25T09:19:45.817Z,39.10
2018-07-25T09:22:15.065Z,38.70
2018-07-25T09:24:44.313Z,38.80
2018-07-25T09:27:13.507Z,39.20
2018-07-25T09:29:42.761Z,39.00
2018-07-25T09:32:12.449Z,38.90
2018-07-25T09:34:41.692Z,39.10
2018-07-25T09:37:10.917Z,38.40
2018-07-25T09:39:40.173Z,37.70
2018-07-25T09:42:09.409Z,36.80
2018-07-25T09:44:38.661Z,37.50
2018-07-25T09:47:08.039Z,37.10
2018-07-25T09:49:37.211Z,36.80
2018-07-25T09:52:06.474Z,37.60
2018-07-25T09:54:35.710Z,37.40
2018-07-25T09:57:05.158Z,37.60
2018-07-25T09:59:34.392Z,37.10
2018-07-25T10:02:03.654Z,37.70
2018-07-25T10:04:32.871Z,36.00
2018-07-25T10:07:02.144Z,35.50
2018-07-25T10:09:31.369Z,35.40
2018-07-25T10:12:00.601Z,35.00
2018-07-25T10:14:29.865Z,34.90
2018-07-25T10:16:59.204Z,34.50
2018-07-25T10:19:28.485Z,33.50
2018-07-25T10:21:57.785Z,33.60
2018-07-25T10:24:27.138Z,33.80
2018-07-25T10:29:25.484Z,33.70
2018-07-25T10:31:54.760Z,33.70
2018-07-25T10:34:23.962Z,32.60
2018-07-25T10:36:53.228Z,33.40
2018-07-25T10:39:22.434Z,32.50
2018-07-25T10:41:51.725Z,32.90
2018-07-25T10:44:20.943Z,32.50
2018-07-25T10:46:50.148Z,32.30
2018-07-25T10:49:19.365Z,32.10
2018-07-25T10:51:48.628Z,32.30
2018-07-25T10:54:17.834Z,32.60
2018-07-25T10:56:47.087Z,32.80
2018-07-25T10:59:16.633Z,32.80
2018-07-25T11:01:46.029Z,32.50
2018-07-25T11:04:15.272Z,32.70
2018-07-25T11:06:44.566Z,32.80
2018-07-25T11:09:13.821Z,32.80
2018-07-25T11:11:43.036Z,32.70
2018-07-25T11:14:12.284Z,32.70
2018-07-25T11:16:41.476Z,32.30
2018-07-25T11:19:11.494Z,32.50
2018-07-25T11:21:40.670Z,32.60
2018-07-25T11:24:09.901Z,32.60
2018-07-25T11:26:39.144Z,32.80
2018-07-25T11:29:08.389Z,32.60
2018-07-25T11:31:37.663Z,32.90
2018-07-25T11:34:06.889Z,33.00
2018-07-25T11:36:36.084Z,31.70
2018-07-25T11:39:09.479Z,31.60
2018-07-25T11:41:38.808Z,32.00
2018-07-25T11:44:08.753Z,32.70
2018-07-25T11:46:37.967Z,33.20
2018-07-25T11:49:07.237Z,33.20
2018-07-25T11:51:36.465Z,33.30
2018-07-25T11:54:05.693Z,32.90
2018-07-25T11:56:34.894Z,32.80
2018-07-25T11:59:04.221Z,32.70
2018-07-25T12:01:33.483Z,33.10
2018-07-25T12:04:02.692Z,33.60
2018-07-25T12:06:31.885Z,33.40
2018-07-25T12:09:01.166Z,33.20
2018-07-25T12:11:30.401Z,32.60
2018-07-25T12:13:59.689Z,32.50
2018-07-25T12:16:28.931Z,32.70
2018-07-25T12:18:58.313Z,32.40
2018-07-25T12:21:27.517Z,32.70
2018-07-25T12:23:56.777Z,32.70
2018-07-25T12:26:25.998Z,33.10
2018-07-25T12:28:55.241Z,33.40
2018-07-25T12:31:24.476Z,33.20
2018-07-25T12:33:53.702Z,32.20
2018-07-25T12:36:22.930Z,32.00
2018-07-25T12:38:52.196Z,31.60
2018-07-25T12:41:21.437Z,31.30
2018-07-25T12:43:50.660Z,31.80
2018-07-25T12:46:19.896Z,31.90
2018-07-25T12:48:49.103Z,31.80
2018-07-25T12:51:18.336Z,31.80
2018-07-25T12:53:47.613Z,32.70
2018-07-25T12:56:16.887Z,32.60
2018-07-25T12:58:46.092Z,32.70
2018-07-25T13:01:15.361Z,31.90
2018-07-25T13:03:44.609Z,31.90
2018-07-25T13:06:13.864Z,32.20
2018-07-25T13:08:43.101Z,32.40
2018-07-25T13:11:12.358Z,32.80
2018-07-25T13:13:41.642Z,33.20
2018-07-25T13:16:10.868Z,33.20
2018-07-25T13:18:40.352Z,32.90
2018-07-25T13:21:09.653Z,32.80
2018-07-25T13:23:38.886Z,32.30
2018-07-25T13:26:08.147Z,31.70
2018-07-25T13:28:37.396Z,31.60
2018-07-25T13:31:06.656Z,32.00
2018-07-25T13:33:35.905Z,32.50
2018-07-25T13:36:05.212Z,32.30
2018-07-25T13:38:34.390Z,32.20
2018-07-25T13:41:03.744Z,32.40
2018-07-25T13:43:33.001Z,32.70
2018-07-25T13:46:02.345Z,32.90
2018-07-25T13:48:31.635Z,33.00
2018-07-25T13:51:00.909Z,33.20
2018-07-25T13:53:30.173Z,33.00
2018-07-25T13:55:59.448Z,33.20
2018-07-25T13:58:28.684Z,34.00
2018-07-25T14:00:57.942Z,33.00
2018-07-25T14:03:27.229Z,32.60
2018-07-25T14:05:56.545Z,32.10
2018-07-25T14:08:25.793Z,32.40
2018-07-25T14:10:55.193Z,32.60
2018-07-25T14:13:24.445Z,32.80
2018-07-25T14:15:53.751Z,33.10
2018-07-25T14:18:22.989Z,33.30
2018-07-25T14:20:52.252Z,33.10
2018-07-25T14:23:21.480Z,33.30
2018-07-25T14:25:50.733Z,33.40
2018-07-25T14:28:20.025Z,33.10
2018-07-25T14:30:49.400Z,32.50
2018-07-25T14:33:18.639Z,32.40
2018-07-25T14:35:48.955Z,32.50
2018-07-25T14:38:20.141Z,32.40
2018-07-25T14:40:49.416Z,32.30
2018-07-25T14:43:18.708Z,32.50
2018-07-25T14:45:47.885Z,32.60
2018-07-25T14:48:17.145Z,32.40
2018-07-25T14:50:46.402Z,32.70
2018-07-25T14:53:15.647Z,33.00
2018-07-25T14:55:44.916Z,33.20
2018-07-25T14:58:14.149Z,32.70
2018-07-25T15:00:43.360Z,32.10
2018-07-25T15:05:41.552Z,32.10
2018-07-25T15:08:10.779Z,32.80
2018-07-25T15:10:40.000Z,31.90
2018-07-25T15:13:09.285Z,31.50
2018-07-25T15:15:38.555Z,31.90
2018-07-25T15:18:07.815Z,31.70
2018-07-25T15:20:37.081Z,31.90
2018-07-25T15:23:06.417Z,32.00
2018-07-25T15:25:35.690Z,32.10
2018-07-25T15:28:04.990Z,32.20
2018-07-25T15:30:34.225Z,32.40
2018-07-25T15:33:03.529Z,32.60
2018-07-25T15:35:32.768Z,32.50
2018-07-25T15:38:02.050Z,32.40
2018-07-25T15:40:31.325Z,32.50
2018-07-25T15:43:00.601Z,32.60
2018-07-25T15:45:29.917Z,32.80
2018-07-25T15:47:59.171Z,32.40
2018-07-25T15:50:28.457Z,32.40
2018-07-25T15:52:57.899Z,32.80
2018-07-25T15:55:27.157Z,32.90
2018-07-25T15:57:56.433Z,32.80
2018-07-25T16:00:25.684Z,32.70
2018-07-25T16:02:54.937Z,32.70
2018-07-25T16:05:24.189Z,32.50
2018-07-25T16:07:53.416Z,32.00
2018-07-25T16:10:22.701Z,31.90
2018-07-25T16:12:51.969Z,32.60
2018-07-25T16:15:21.241Z,32.80
2018-07-25T16:17:50.459Z,31.80
2018-07-25T16:20:19.732Z,32.30
2018-07-25T16:22:48.939Z,32.50
2018-07-25T16:25:18.165Z,32.50
2018-07-25T16:27:47.462Z,32.30
2018-07-25T16:30:16.724Z,32.40
2018-07-25T16:32:45.961Z,32.60
2018-07-25T16:35:15.263Z,33.00
2018-07-25T16:37:44.456Z,33.00
2018-07-25T16:40:13.808Z,33.00
2018-07-25T16:42:43.613Z,33.50
2018-07-25T16:45:12.937Z,33.10
2018-07-25T16:50:11.148Z,33.30
2018-07-25T16:52:40.394Z,33.10
2018-07-25T16:55:09.648Z,32.90
2018-07-25T16:57:38.919Z,33.10
2018-07-25T17:00:08.227Z,33.40
2018-07-25T17:02:37.515Z,33.40
2018-07-25T17:05:06.881Z,33.60
2018-07-25T17:07:36.101Z,33.60
2018-07-25T17:10:05.633Z,33.60
2018-07-25T17:12:34.840Z,33.90
2018-07-25T17:15:04.162Z,34.10
2018-07-25T17:17:33.466Z,34.00
2018-07-25T17:20:02.753Z,34.00
2018-07-25T17:22:32.066Z,33.90
2018-07-25T17:25:01.342Z,33.90
2018-07-25T17:27:30.654Z,33.90
2018-07-25T17:29:59.871Z,34.00
2018-07-25T17:32:29.216Z,34.00
2018-07-25T17:34:58.603Z,34.20
2018-07-25T17:37:27.852Z,34.30
2018-07-25T17:39:58.032Z,34.20
2018-07-25T17:44:56.333Z,34.80
2018-07-25T17:47:25.636Z,35.10
2018-07-25T17:49:54.911Z,35.50
2018-07-25T17:52:24.193Z,35.60
2018-07-25T17:54:53.531Z,35.60
2018-07-25T17:57:22.786Z,35.80
2018-07-25T17:59:52.027Z,35.90
2018-07-25T18:02:21.304Z,36.00
2018-07-25T18:04:50.531Z,35.80
2018-07-25T18:07:19.777Z,35.90
2018-07-25T18:09:49.022Z,36.00
2018-07-25T18:12:18.264Z,36.10
2018-07-25T18:14:47.523Z,36.30
2018-07-25T18:17:16.879Z,36.40
2018-07-25T18:19:46.068Z,36.50
2018-07-25T18:22:15.341Z,36.40
2018-07-25T18:24:44.617Z,36.70
2018-07-25T18:27:13.865Z,36.70
2018-07-25T18:29:43.118Z,37.60
2018-07-25T18:32:12.356Z,36.90
2018-07-25T18:34:41.599Z,36.90
2018-07-25T18:37:10.909Z,37.10
2018-07-25T18:39:40.146Z,37.10
2018-07-25T18:42:09.419Z,37.20
2018-07-25T18:44:38.675Z,37.40
2018-07-25T18:47:08.026Z,37.60
2018-07-25T18:49:37.225Z,37.70
2018-07-25T18:52:06.713Z,38.00
2018-07-25T18:54:35.957Z,38.20
2018-07-25T18:57:05.244Z,38.30
2018-07-25T18:59:34.503Z,38.60
2018-07-25T19:02:03.810Z,38.50
2018-07-25T19:04:33.109Z,38.60
2018-07-25T19:07:02.404Z,38.90
2018-07-25T19:09:31.640Z,39.00
2018-07-25T19:12:00.896Z,39.30
2018-07-25T19:14:35.432Z,39.30
2018-07-25T19:17:04.728Z,39.40
2018-07-25T19:19:34.002Z,39.60
2018-07-25T19:22:03.224Z,39.80
2018-07-25T19:24:32.481Z,40.00
2018-07-25T19:27:01.874Z,40.20
2018-07-25T19:29:31.109Z,40.00
2018-07-25T19:32:00.323Z,40.40
2018-07-25T19:34:29.597Z,40.40
2018-07-25T19:36:58.864Z,40.50
2018-07-25T19:39:32.273Z,41.30
2018-07-25T19:42:01.513Z,41.60
2018-07-25T19:44:30.828Z,42.90
2018-07-25T19:47:00.093Z,43.90
2018-07-25T19:49:29.364Z,43.90
2018-07-25T19:51:58.749Z,45.00
2018-07-25T19:54:28.091Z,45.00
2018-07-25T19:56:57.352Z,45.20
2018-07-25T19:59:26.622Z,45.90
2018-07-25T20:01:55.842Z,46.30
2018-07-25T20:04:25.110Z,46.30
2018-07-25T20:06:54.698Z,47.10
2018-07-25T20:09:23.921Z,47.20
2018-07-25T20:11:53.108Z,47.60
2018-07-25T20:14:27.663Z,48.00
2018-07-25T20:16:56.998Z,48.30
2018-07-25T20:19:26.219Z,48.40
2018-07-25T20:21:55.440Z,48.90
2018-07-25T20:24:24.703Z,49.20
2018-07-25T20:26:53.920Z,49.40
2018-07-25T20:29:23.178Z,49.70
2018-07-25T20:31:52.390Z,49.30
2018-07-25T20:34:21.626Z,49.30
2018-07-25T20:36:51.042Z,49.40
2018-07-25T20:39:20.295Z,49.80
2018-07-25T20:41:49.506Z,50.30
2018-07-25T20:44:19.579Z,51.10
2018-07-25T20:46:48.843Z,51.30
2018-07-25T20:49:18.081Z,51.30
2018-07-25T20:51:47.303Z,51.30
2018-07-25T20:54:16.536Z,50.60
2018-07-25T20:56:45.765Z,51.60
2018-07-25T20:59:15.015Z,51.50
2018-07-25T21:01:44.268Z,51.80
2018-07-25T21:04:13.597Z,51.40
2018-07-25T21:06:42.818Z,51.60
2018-07-25T21:09:12.100Z,51.50
2018-07-25T21:11:41.332Z,51.30
2018-07-25T21:14:10.557Z,51.90
2018-07-25T21:16:39.805Z,52.10
2018-07-25T21:19:09.033Z,52.10
2018-07-25T21:21:38.329Z,52.10
2018-07-25T21:24:07.508Z,52.70
2018-07-25T21:26:36.722Z,53.00
2018-07-25T21:29:05.998Z,53.10
2018-07-25T21:31:35.244Z,53.40
2018-07-25T21:34:04.470Z,53.60
2018-07-25T21:36:33.764Z,53.50
2018-07-25T21:39:03.017Z,54.30
2018-07-25T21:41:32.247Z,54.30
2018-07-25T21:44:01.469Z,54.90
2018-07-25T21:46:30.748Z,55.20
2018-07-25T21:48:59.971Z,55.80
2018-07-25T21:51:29.208Z,55.60
2018-07-25T21:53:58.472Z,55.70
2018-07-25T21:56:28.087Z,56.10
2018-07-25T21:58:57.354Z,56.70
2018-07-25T22:01:26.572Z,56.60
2018-07-25T22:03:55.902Z,56.90
2018-07-25T22:06:25.076Z,56.90
2018-07-25T22:08:54.291Z,57.10
2018-07-25T22:11:23.553Z,57.30
2018-07-25T22:13:57.786Z,57.10
2018-07-25T22:16:27.929Z,57.90
2018-07-25T22:18:57.178Z,57.90
2018-07-25T22:21:26.406Z,57.60
2018-07-25T22:23:55.604Z,58.00
2018-07-25T22:26:24.842Z,57.70
2018-07-25T22:28:54.048Z,58.30
2018-07-25T22:31:23.298Z,58.60
2018-07-25T22:33:52.492Z,58.90
2018-07-25T22:36:21.723Z,59.20
2018-07-25T22:38:50.929Z,59.90
2018-07-25T22:41:20.169Z,60.40
2018-07-25T22:43:49.390Z,60.50
2018-07-25T22:46:18.874Z,61.30
2018-07-25T22:48:48.093Z,62.30
2018-07-25T22:51:17.299Z,62.80
2018-07-25T22:53:46.522Z,62.80
2018-07-25T22:56:15.732Z,62.30
2018-07-25T22:58:44.972Z,61.50
2018-07-25T23:01:14.962Z,61.40
2018-07-25T23:03:44.216Z,62.50
2018-07-25T23:06:13.400Z,63.30
2018-07-25T23:08:42.629Z,62.80
2018-07-25T23:11:11.855Z,62.10
2018-07-25T23:13:45.245Z,62.50
2018-07-25T23:16:15.476Z,62.20
2018-07-25T23:18:45.036Z,62.50
2018-07-25T23:21:14.239Z,62.40
2018-07-25T23:23:43.505Z,62.30
2018-07-25T23:26:12.721Z,62.30
2018-07-25T23:28:41.949Z,62.40
2018-07-25T23:31:11.196Z,62.60
2018-07-25T23:33:40.437Z,62.80
2018-07-25T23:36:09.659Z,64.50
2018-07-25T23:38:38.943Z,65.30
2018-07-25T23:41:08.338Z,65.70
2018-07-25T23:43:37.580Z,66.10
2018-07-25T23:46:06.919Z,66.70
2018-07-25T23:48:36.165Z,66.90
2018-07-25T23:51:05.369Z,66.60
2018-07-25T23:53:34.599Z,66.70
2018-07-25T23:56:03.798Z,66.50
2018-07-25T23:58:33.024Z,66.80
